Flight Track Log - Related Links

Times and Time Zones

All times are in EST time to prevent confusion due to time zone crossing. See the JZA8761 flight status page for this flight to view local times or setup timezone preferences in your user account.

Time Position Orientation Groundspeed Altitude Reporting Facility
EST Latitude Longitude Course Direction KTS MPH feet Rate Location/Type
Sun 09:21:49 PM 45.4500 -73.7500 301° West 50 58 600  Level Montreal Center
Sun 09:22:49 PM 45.4667 -73.8000 295° West 130 150 2,400 1,700 Climbing Montreal Center
Sun 09:23:49 PM 45.5000 -73.8167 341° North 120 138 4,000 1,500 Climbing Montreal Center
Sun 09:24:49 PM 45.5000 -73.8667 270° West 130 150 5,400 1,500 Climbing Montreal Center
Sun 09:25:00 PM 45.5780 -74.0672 296° West  Level FlightAware Approximate
Sun 09:25:49 PM 45.5333 -73.9167 314° West 150 173 7,000  Level Montreal Center
Sun 09:26:00 PM 45.6079 -74.1492 306° West  Level FlightAware Approximate
Sun 09:26:49 PM 45.5500 -73.9833 290° West 150 173 8,500  Level Montreal Center
Sun 09:27:00 PM 45.6478 -74.2154 306° West  Level Estimated
Sun 09:27:49 PM 45.5833 -74.0333 314° West 140 161 10,000  Level Montreal Center
Sun 09:28:00 PM 45.6876 -74.2816 301° West  Level Estimated
Sun 09:28:49 PM 45.6000 -74.0833 295° West 140 161 11,500  Level Montreal Center
Sun 09:29:49 PM 45.6167 -74.1167 306° West 140 161 13,000 1,450 Climbing Montreal Center
Sun 09:30:49 PM 45.6333 -74.1667 296° West 140 161 14,400 1,450 Climbing Montreal Center
Sun 09:31:49 PM 45.6667 -74.2167 314° West 150 173 15,900 1,200 Climbing Montreal Center
Sun 09:32:49 PM 45.7000 -74.2667 314° West 160 184 16,800 1,050 Climbing Montreal Center
Sun 09:33:49 PM 45.7167 -74.3167 296° West 180 207 18,000 1,100 Climbing Montreal Center
Sun 09:34:49 PM 45.7500 -74.3833 306° West 180 207 19,000 1,000 Climbing Montreal Center
Sun 09:35:49 PM 45.7833 -74.4333 314° West 190 219 20,000 1,000 Climbing Montreal Center
Sun 09:36:49 PM 45.8167 -74.5000 306° West 190 219 21,000 1,000 Climbing Montreal Center
Sun 09:37:49 PM 45.8500 -74.5500 314° West 190 219 22,000 900 Climbing Montreal Center
Sun 09:38:49 PM 45.8833 -74.6167 306° West 190 219 22,800 900 Climbing Montreal Center
Sun 09:39:49 PM 45.9000 -74.6667 296° West 180 207 23,800 600 Climbing Montreal Center
Sun 09:40:49 PM 45.9333 -74.7333 306° West 200 230 24,000 100 Climbing Montreal Center
Sun 09:41:49 PM 45.9833 -74.7833 325° Northwest 220 253 24,000  Level Montreal Center
Sun 09:42:49 PM 46.0167 -74.8500 306° West 230 265 24,000  Level Montreal Center
Sun 09:43:49 PM 46.0500 -74.9500 296° West 240 276 24,000  Level Montreal Center
Sun 09:44:49 PM 46.1000 -75.0167 317° Northwest 240 276 24,000  Level Montreal Center
Sun 09:45:49 PM 46.1500 -75.1000 311° West 240 276 24,000  Level Montreal Center
Sun 09:46:49 PM 46.1833 -75.1667 306° West 240 276 24,000  Level Montreal Center
Sun 09:47:49 PM 46.2333 -75.2667 306° West 240 276 24,000  Level Montreal Center
Sun 09:48:49 PM 46.2667 -75.3333 306° West 240 276 24,000  Level Montreal Center
Sun 09:49:49 PM 46.3167 -75.4167 311° West 240 276 24,000  Level Montreal Center
Sun 09:50:49 PM 46.3500 -75.5000 300° West 240 276 24,000  Level Montreal Center
Sun 09:51:49 PM 46.4000 -75.5833 311° West 250 288 24,000  Level Montreal Center
Sun 09:52:49 PM 46.4333 -75.6500 306° West 250 288 24,000  Level Montreal Center
Sun 09:53:49 PM 46.4833 -75.7167 317° Northwest 240 276 24,000  Level Montreal Center
Sun 09:54:49 PM 46.5167 -75.8000 300° West 250 288 24,000  Level Montreal Center
Sun 09:55:49 PM 46.5500 -75.9000 296° West 250 288 24,000  Level Montreal Center
Sun 09:56:49 PM 46.6000 -75.9667 318° Northwest 250 288 24,000  Level Montreal Center
Sun 09:57:49 PM 46.6333 -76.0667 296° West 250 288 24,000  Level Montreal Center
Sun 09:58:49 PM 46.6833 -76.1333 318° Northwest 240 276 24,000  Level Montreal Center
Sun 09:59:49 PM 46.7167 -76.2167 300° West 240 276 24,000  Level Montreal Center
Sun 10:00:49 PM 46.7667 -76.2833 318° Northwest 250 288 24,000  Level Montreal Center
Sun 10:01:49 PM 46.8000 -76.3667 300° West 240 276 24,000  Level Montreal Center
Sun 10:02:49 PM 46.8500 -76.4500 311° West 240 276 24,000  Level Montreal Center
Sun 10:03:49 PM 46.8833 -76.5333 300° West 240 276 24,000  Level Montreal Center
Sun 10:04:49 PM 46.9167 -76.6000 306° West 250 288 24,000  Level Montreal Center
Sun 10:05:49 PM 46.9667 -76.7000 306° West 240 276 24,000  Level Montreal Center
Sun 10:06:49 PM 47.0167 -76.7833 311° West 250 288 24,000  Level Montreal Center
Sun 10:07:49 PM 47.0500 -76.8500 306° West 250 288 24,000  Level Montreal Center
Sun 10:08:49 PM 47.0833 -76.9333 300° West 250 288 24,000  Level Montreal Center
Sun 10:09:49 PM 47.1333 -77.0333 306° West 240 276 24,000  Level Montreal Center
Sun 10:10:49 PM 47.1667 -77.1000 306° West 240 276 24,000  Level Montreal Center
Sun 10:11:49 PM 47.2167 -77.1833 311° West 250 288 24,000  Level Montreal Center
Sun 10:12:49 PM 47.2500 -77.2500 306° West 240 276 24,000  Level Montreal Center
Sun 10:13:49 PM 47.2833 -77.3500 296° West 240 276 24,000  Level Montreal Center
Sun 10:14:49 PM 47.3333 -77.4333 312° West 240 276 24,000  Level Montreal Center
Sun 10:15:49 PM 47.3667 -77.5000 306° West 240 276 24,000  Level Montreal Center
Sun 10:16:49 PM 47.4167 -77.5833 312° West 250 288 24,000  Level Montreal Center
Sun 10:17:49 PM 47.4333 -77.6833 284° West 240 276 24,000 -300 Level Montreal Center
Sun 10:18:49 PM 47.4833 -77.7333 326° Northwest 250 288 23,400 -950 Descending Montreal Center
Sun 10:19:49 PM 47.5500 -77.8000 326° Northwest 270 311 22,100 -1,250 Descending Montreal Center
Sun 10:20:49 PM 47.6167 -77.8667 326° Northwest 280 322 20,900 -1,350 Descending Montreal Center
Sun 10:21:49 PM 47.6833 -77.9333 326° Northwest 270 311 19,400 -1,350 Descending Montreal Center
Sun 10:22:49 PM 47.7333 -77.9833 326° Northwest 260 299 18,200 -1,450 Descending Montreal Center
Sun 10:23:49 PM 47.8000 -78.0500 326° Northwest 260 299 16,500 -1,500 Descending Montreal Center
Sun 10:24:49 PM 47.8667 -78.1167 326° Northwest 270 311 15,200 -1,400 Descending Montreal Center
Sun 10:25:49 PM 47.9333 -78.1667 333° Northwest 270 311 13,700 -1,450 Descending Montreal Center
Sun 10:26:49 PM 48.0000 -78.2500 320° Northwest 270 311 12,300 -1,450 Descending Montreal Center
Sun 10:27:49 PM 48.0500 -78.3000 326° Northwest 260 299 10,800 -1,400 Descending Montreal Center
Sun 10:28:49 PM 48.1167 -78.3833 320° Northwest 250 288 9,500 -1,300 Descending Montreal Center
Sun 10:30:00 PM 48.1841 -78.4233 318° Northwest  Level FlightAware Approximate
Sun 10:37:00 PM 48.2000 -78.8333 249° West  Level FlightAware Approximate
Sun 10:38:00 PM 48.2061 -78.8356 249° West  Level Estimated
Sun 10:39:00 PM 48.2000 -78.8333 249° West  Level FlightAware Approximate
Sun 10:40:00 PM 48.2061 -78.8356 249° West  Level Estimated
Sun 10:41:00 PM 48.2000 -78.8333 249° West  Level FlightAware Approximate
Sun 10:42:00 PM 48.2061 -78.8356 249° West  Level Estimated

Login

Don't have an account? Register now (free) for customized features, flight alerts, and more!